Terminal Aerodrome Forecast
Issued by NWS Charleston, WV

Current Version | Previous Version | Text Only | Print | Product List | Glossary Off
Versions: 1 2 3 4 5 6 7 8 9 10 11 12 13 14 15 16 17 18 19 20 21 22 23 24 25 26 27 28 29 30

000
FTUS41 KRLX 290534
TAFCRW
TAF
KCRW 290534Z 2906/3006 10005KT P6SM BKN070
     FM290800 11004KT P6SM BKN020
     FM291400 11005KT P6SM OVC020
     FM291700 35004KT P6SM SHRA VCTS OVC035CB
     FM292300 VRB03KT 6SM SHRA VCTS OVC025CB
     FM300300 VRB03KT 5SM SHRA OVC015=

USA.gov is the U.S. government's official web portal to all federal, state and local government web resources and services.